createdAt,value
2022-09-21T00:01:12.465Z,65.60
2022-09-21T00:03:41.318Z,64.43
2022-09-21T00:06:11.420Z,63.97
2022-09-21T00:08:40.328Z,65.87
2022-09-21T00:11:08.769Z,65.13
2022-09-21T00:13:37.813Z,65.20
2022-09-21T00:16:06.974Z,63.70
2022-09-21T00:18:35.483Z,63.40
2022-09-21T00:21:06.977Z,63.00
2022-09-21T00:23:35.862Z,63.77
2022-09-21T00:26:10.136Z,62.53
2022-09-21T00:28:38.100Z,64.47
2022-09-21T00:31:07.510Z,63.13
2022-09-21T00:33:35.877Z,62.40
2022-09-21T00:36:04.773Z,63.10
2022-09-21T00:38:32.324Z,61.33
2022-09-21T00:41:00.063Z,63.50
2022-09-21T00:43:28.963Z,63.40
2022-09-21T00:46:02.812Z,63.20
2022-09-21T00:48:31.543Z,62.20
2022-09-21T00:51:03.010Z,63.40
2022-09-21T00:53:32.008Z,62.90
2022-09-21T00:56:00.872Z,62.50
2022-09-21T00:58:32.676Z,62.70
2022-09-21T01:01:01.905Z,62.57
2022-09-21T01:03:32.269Z,62.83
2022-09-21T01:05:59.804Z,62.43
2022-09-21T01:08:29.062Z,61.50
2022-09-21T01:11:25.215Z,63.23
2022-09-21T01:14:07.987Z,61.80
2022-09-21T01:16:44.705Z,61.77
2022-09-21T01:19:28.272Z,62.50
2022-09-21T01:22:05.588Z,62.80
2022-09-21T01:24:49.424Z,61.87
2022-09-21T01:27:54.232Z,63.90
2022-09-21T01:30:24.489Z,62.57
2022-09-21T01:32:57.584Z,63.13
2022-09-21T01:35:29.394Z,61.83
2022-09-21T01:38:00.213Z,61.70
2022-09-21T01:40:35.588Z,62.77
2022-09-21T01:43:06.669Z,62.77
2022-09-21T01:45:40.281Z,62.07
2022-09-21T01:48:09.119Z,61.73
2022-09-21T01:50:41.401Z,62.97
2022-09-21T01:53:13.937Z,62.00
2022-09-21T01:55:46.848Z,62.10
2022-09-21T01:58:19.657Z,61.40
2022-09-21T02:00:52.056Z,61.30
2022-09-21T02:03:27.428Z,63.27
2022-09-21T02:05:55.242Z,61.03
2022-09-21T02:08:22.861Z,61.23
2022-09-21T02:10:53.501Z,61.70
2022-09-21T02:13:27.597Z,61.40
2022-09-21T02:16:13.236Z,61.50
2022-09-21T02:18:50.834Z,61.30
2022-09-21T02:21:26.552Z,63.10
2022-09-21T02:24:03.354Z,62.63
2022-09-21T02:26:38.086Z,63.83
2022-09-21T02:29:15.976Z,63.47
2022-09-21T02:31:49.663Z,63.63
2022-09-21T02:34:23.178Z,61.87
2022-09-21T02:36:56.874Z,62.57
2022-09-21T02:39:31.846Z,62.87
2022-09-21T02:42:07.619Z,62.87
2022-09-21T02:44:40.453Z,64.93
2022-09-21T02:47:15.387Z,61.23
2022-09-21T02:49:47.711Z,61.63
2022-09-21T02:52:18.143Z,61.73
2022-09-21T02:54:50.369Z,61.73
2022-09-21T02:57:20.432Z,61.03
2022-09-21T02:59:49.098Z,60.20
2022-09-21T03:02:18.095Z,60.63
2022-09-21T03:04:48.468Z,60.80
2022-09-21T03:07:16.678Z,62.43
2022-09-21T03:09:44.847Z,59.87
2022-09-21T03:12:12.346Z,61.90
2022-09-21T03:14:39.878Z,64.13
2022-09-21T03:17:07.493Z,62.50
2022-09-21T03:19:36.422Z,62.83
2022-09-21T03:22:04.218Z,62.53
2022-09-21T03:24:46.596Z,62.77
2022-09-21T03:27:14.662Z,65.13
2022-09-21T03:29:42.235Z,65.10
2022-09-21T03:32:10.205Z,67.07
2022-09-21T03:34:39.088Z,62.83
2022-09-21T03:37:08.878Z,64.83
2022-09-21T03:39:36.653Z,64.07
2022-09-21T03:42:04.777Z,64.00
2022-09-21T03:44:32.391Z,63.27
2022-09-21T03:46:59.935Z,62.10
2022-09-21T03:49:27.443Z,64.40
2022-09-21T03:51:57.028Z,62.97
2022-09-21T03:54:25.541Z,61.83
2022-09-21T03:56:53.390Z,63.50
2022-09-21T03:59:21.000Z,63.40
2022-09-21T04:01:48.563Z,61.40
2022-09-21T04:04:16.550Z,65.30
2022-09-21T04:06:46.178Z,67.30
2022-09-21T04:09:15.035Z,63.57
2022-09-21T04:11:42.716Z,65.03
2022-09-21T04:14:12.435Z,63.97
2022-09-21T04:16:39.966Z,65.20
2022-09-21T04:19:07.580Z,64.30
2022-09-21T04:21:35.137Z,65.73
2022-09-21T04:24:04.118Z,63.60
2022-09-21T04:26:34.587Z,65.03
2022-09-21T04:29:02.797Z,69.13
2022-09-21T04:31:31.631Z,96.13
2022-09-21T04:33:59.800Z,67.13
2022-09-21T04:36:33.121Z,68.17
2022-09-21T04:39:03.350Z,68.20
2022-09-21T04:41:30.915Z,73.40
2022-09-21T04:43:59.893Z,67.17
2022-09-21T04:46:27.483Z,63.40
2022-09-21T04:48:55.143Z,66.40
2022-09-21T04:51:22.684Z,65.97
2022-09-21T04:53:50.196Z,66.50
2022-09-21T04:56:17.987Z,66.47
2022-09-21T04:58:45.695Z,67.33
2022-09-21T05:01:14.644Z,65.40
2022-09-21T05:03:42.206Z,79.33
2022-09-21T05:06:13.376Z,95.97
2022-09-21T05:08:58.440Z,66.30
2022-09-21T05:11:26.914Z,74.43
2022-09-21T05:13:54.671Z,93.23
2022-09-21T05:16:23.737Z,65.97
2022-09-21T05:18:55.837Z,72.00
2022-09-21T05:21:23.771Z,66.00
2022-09-21T05:23:51.299Z,66.83
2022-09-21T05:26:19.141Z,66.60
2022-09-21T05:28:47.221Z,65.33
2022-09-21T05:31:36.979Z,67.63
2022-09-21T05:34:08.104Z,64.20
2022-09-21T05:36:48.265Z,67.30
2022-09-21T05:39:16.312Z,68.97
2022-09-21T05:41:44.429Z,64.83
2022-09-21T05:44:14.582Z,67.73
2022-09-21T05:46:52.668Z,65.23
2022-09-21T05:49:26.765Z,65.27
2022-09-21T05:52:03.280Z,64.30
2022-09-21T05:54:44.232Z,69.03
2022-09-21T05:57:19.601Z,65.90
2022-09-21T06:00:01.290Z,63.87
2022-09-21T06:02:45.628Z,80.23
2022-09-21T06:05:15.268Z,65.80
2022-09-21T06:07:42.941Z,67.60
2022-09-21T06:10:11.436Z,67.30
2022-09-21T06:12:39.260Z,65.60
2022-09-21T06:15:08.821Z,68.33
2022-09-21T06:17:37.707Z,64.33
2022-09-21T06:20:07.099Z,67.63
2022-09-21T06:22:35.239Z,64.97
2022-09-21T06:25:02.837Z,67.73
2022-09-21T06:27:30.570Z,64.60
2022-09-21T06:29:58.290Z,66.63
2022-09-21T06:32:25.777Z,65.77
2022-09-21T06:34:54.692Z,66.40
2022-09-21T06:37:22.240Z,66.60
2022-09-21T06:39:49.769Z,65.10
2022-09-21T06:42:17.236Z,61.50
2022-09-21T06:44:44.773Z,65.30
2022-09-21T06:47:12.286Z,67.10
2022-09-21T06:49:42.546Z,66.20
2022-09-21T06:52:11.635Z,65.83
2022-09-21T06:54:39.650Z,76.53
2022-09-21T06:57:07.198Z,67.23
2022-09-21T06:59:34.747Z,65.17
2022-09-21T07:02:02.328Z,69.47
2022-09-21T07:04:29.983Z,68.30
2022-09-21T07:06:59.619Z,68.77
2022-09-21T07:12:17.596Z,67.30
2022-09-21T07:14:46.180Z,65.43
2022-09-21T07:17:15.713Z,66.03
2022-09-21T07:19:43.467Z,66.37
2022-09-21T07:22:10.965Z,65.83
2022-09-21T07:24:40.143Z,66.73
2022-09-21T07:27:07.614Z,65.00
2022-09-21T07:29:35.131Z,66.63
2022-09-21T07:32:03.076Z,64.90
2022-09-21T07:34:30.634Z,64.77
2022-09-21T07:36:58.128Z,64.57
2022-09-21T07:39:25.640Z,65.60
2022-09-21T07:41:54.639Z,65.10
2022-09-21T07:44:22.803Z,62.57
2022-09-21T07:46:50.504Z,63.27
2022-09-21T07:49:18.579Z,64.13
2022-09-21T07:51:46.168Z,64.47
2022-09-21T07:54:15.805Z,64.30
2022-09-21T07:57:03.558Z,66.63
2022-09-21T07:59:32.905Z,64.80
2022-09-21T08:02:00.862Z,65.97
2022-09-21T08:04:28.579Z,67.20
2022-09-21T08:06:56.161Z,65.67
2022-09-21T08:09:23.649Z,63.33
2022-09-21T08:11:51.900Z,63.90
2022-09-21T08:14:25.858Z,63.83
2022-09-21T08:16:55.312Z,63.67
2022-09-21T08:19:26.566Z,66.27
2022-09-21T08:21:57.527Z,67.23
2022-09-21T08:24:25.779Z,64.17
2022-09-21T08:26:53.366Z,64.70
2022-09-21T08:29:20.934Z,63.73
2022-09-21T08:31:48.528Z,66.00
2022-09-21T08:34:17.426Z,66.33
2022-09-21T08:36:45.889Z,65.77
2022-09-21T08:39:13.698Z,66.47
2022-09-21T08:42:00.645Z,65.80
2022-09-21T08:44:33.618Z,66.90
2022-09-21T08:47:06.009Z,67.87
2022-09-21T08:49:38.998Z,69.10
2022-09-21T08:52:12.109Z,67.80
2022-09-21T08:54:48.352Z,67.87
2022-09-21T08:57:17.090Z,68.47
2022-09-21T08:59:46.862Z,71.37
2022-09-21T09:02:35.484Z,69.17
2022-09-21T09:05:18.373Z,67.43
2022-09-21T09:08:06.868Z,68.30
2022-09-21T09:10:38.928Z,65.20
2022-09-21T09:13:28.474Z,69.10
2022-09-21T09:16:15.990Z,67.67
2022-09-21T09:18:50.320Z,68.53
2022-09-21T09:21:31.168Z,67.60
2022-09-21T09:24:05.004Z,67.30
2022-09-21T09:26:42.589Z,67.07
2022-09-21T09:29:18.903Z,68.70
2022-09-21T09:31:47.361Z,67.50
2022-09-21T09:34:20.681Z,67.47
2022-09-21T09:36:58.889Z,68.70
2022-09-21T09:39:30.404Z,65.97
2022-09-21T09:42:11.408Z,64.77
2022-09-21T09:44:55.626Z,65.70
2022-09-21T09:47:36.050Z,66.43
2022-09-21T09:50:10.105Z,66.00
2022-09-21T09:52:39.009Z,65.73
2022-09-21T09:55:19.015Z,66.03
2022-09-21T09:57:47.717Z,67.63
2022-09-21T10:00:18.526Z,66.70
2022-09-21T10:02:50.651Z,65.40
2022-09-21T10:05:24.280Z,66.97
2022-09-21T10:07:53.883Z,66.13
2022-09-21T10:10:36.149Z,66.77
2022-09-21T10:13:10.787Z,68.27
2022-09-21T10:15:43.690Z,68.77
2022-09-21T10:18:20.712Z,65.23
2022-09-21T10:21:01.509Z,67.20
2022-09-21T10:23:32.201Z,68.07
2022-09-21T10:26:03.839Z,66.77
2022-09-21T10:28:32.463Z,68.50
2022-09-21T10:31:27.545Z,67.77
2022-09-21T10:34:07.067Z,68.27
2022-09-21T10:36:37.021Z,68.00
2022-09-21T10:39:24.003Z,68.53
2022-09-21T10:41:54.677Z,69.57
2022-09-21T10:44:26.628Z,69.50
2022-09-21T10:49:29.465Z,67.73
2022-09-21T10:51:59.209Z,69.67
2022-09-21T10:54:31.192Z,72.63
2022-09-21T10:57:02.578Z,70.63
2022-09-21T10:59:31.999Z,70.50
2022-09-21T11:02:01.332Z,68.10
2022-09-21T11:04:41.690Z,67.70
2022-09-21T11:07:17.717Z,69.67
2022-09-21T11:09:54.330Z,67.60
2022-09-21T11:12:49.984Z,68.93
2022-09-21T11:15:26.186Z,68.13
2022-09-21T11:18:01.935Z,64.90
2022-09-21T11:20:36.853Z,66.67
2022-09-21T11:23:12.112Z,63.97
2022-09-21T11:25:46.802Z,59.47
2022-09-21T11:28:20.563Z,71.20
2022-09-21T11:31:15.683Z,61.03
2022-09-21T11:33:58.325Z,59.07
2022-09-21T11:36:36.617Z,59.60
2022-09-21T11:39:15.686Z,60.40
2022-09-21T11:41:56.803Z,58.50
2022-09-21T11:44:34.850Z,59.13
2022-09-21T11:47:17.706Z,59.83
2022-09-21T11:50:29.325Z,59.37
2022-09-21T11:53:07.810Z,58.57
2022-09-21T11:55:54.187Z,58.57
2022-09-21T11:58:29.682Z,59.40
2022-09-21T12:01:12.048Z,59.50
2022-09-21T12:04:04.532Z,60.67
2022-09-21T12:06:44.750Z,59.50
2022-09-21T12:09:35.867Z,59.30
2022-09-21T12:12:10.338Z,58.97
2022-09-21T12:14:50.218Z,59.07
2022-09-21T12:17:27.576Z,59.40
2022-09-21T12:20:02.655Z,62.83
2022-09-21T12:22:33.619Z,60.67
2022-09-21T12:25:07.502Z,60.33
2022-09-21T12:27:40.298Z,60.17
2022-09-21T12:30:13.950Z,59.60
2022-09-21T12:32:53.208Z,60.10
2022-09-21T12:35:26.821Z,60.43
2022-09-21T12:38:00.479Z,59.87
2022-09-21T12:40:38.392Z,62.43
2022-09-21T12:43:14.620Z,59.43
2022-09-21T12:45:48.034Z,58.10
2022-09-21T12:48:32.392Z,58.93
2022-09-21T12:51:06.351Z,59.80
2022-09-21T12:53:37.771Z,59.00
2022-09-21T12:56:10.879Z,59.20
2022-09-21T12:58:53.306Z,58.73
2022-09-21T13:01:31.990Z,60.20
2022-09-21T13:04:13.791Z,58.20
2022-09-21T13:07:13.163Z,58.27
2022-09-21T13:09:43.068Z,58.63
2022-09-21T13:12:16.998Z,58.50
2022-09-21T13:14:47.921Z,59.23
2022-09-21T13:17:24.369Z,61.90
2022-09-21T13:19:59.999Z,60.80
2022-09-21T13:22:33.322Z,60.90
2022-09-21T13:25:04.987Z,58.47
2022-09-21T13:28:00.716Z,58.70
2022-09-21T13:30:32.926Z,58.60
2022-09-21T13:33:02.740Z,57.97
2022-09-21T13:36:02.131Z,59.07
2022-09-21T13:38:32.246Z,58.60
2022-09-21T13:41:02.140Z,58.90
2022-09-21T13:44:05.207Z,60.03
2022-09-21T13:47:01.542Z,60.10
2022-09-21T13:49:41.567Z,58.90
2022-09-21T13:52:26.183Z,58.80
2022-09-21T13:54:57.479Z,58.87
2022-09-21T13:57:32.180Z,59.40
2022-09-21T14:00:27.950Z,58.67
2022-09-21T14:03:00.483Z,58.63
2022-09-21T14:05:34.508Z,58.57
2022-09-21T14:08:04.339Z,58.80
2022-09-21T14:10:35.686Z,58.37
2022-09-21T14:13:07.379Z,59.60
2022-09-21T14:15:39.371Z,58.47
2022-09-21T14:18:36.765Z,59.20
2022-09-21T14:21:19.775Z,58.60
2022-09-21T14:24:10.433Z,58.80
2022-09-21T14:26:52.000Z,59.10
2022-09-21T14:29:26.194Z,58.97
2022-09-21T14:31:57.433Z,58.93
2022-09-21T14:34:29.013Z,59.10
2022-09-21T14:37:00.365Z,59.10
2022-09-21T14:39:32.742Z,59.27
2022-09-21T14:42:04.700Z,58.40
2022-09-21T14:44:35.340Z,58.43
2022-09-21T14:47:15.385Z,58.77
2022-09-21T14:50:05.554Z,58.37
2022-09-21T14:52:42.489Z,59.17
2022-09-21T14:55:19.620Z,57.97
2022-09-21T14:58:08.996Z,58.80
2022-09-21T15:00:39.733Z,59.03
2022-09-21T15:03:30.992Z,57.80
2022-09-21T15:06:28.657Z,61.63
2022-09-21T15:09:36.004Z,59.83
2022-09-21T15:12:12.479Z,58.53
2022-09-21T15:14:43.534Z,59.03
2022-09-21T15:17:24.996Z,58.70
2022-09-21T15:19:53.020Z,58.13
2022-09-21T15:22:22.284Z,58.23
2022-09-21T15:24:53.324Z,58.63
2022-09-21T15:27:23.821Z,59.57
2022-09-21T15:29:53.709Z,59.23
2022-09-21T15:32:31.323Z,58.50
2022-09-21T15:35:01.305Z,58.97
2022-09-21T15:37:30.448Z,58.23
2022-09-21T15:40:03.846Z,57.90
2022-09-21T15:42:31.609Z,58.27
2022-09-21T15:45:14.820Z,58.63
2022-09-21T15:47:44.986Z,57.70
2022-09-21T15:50:17.734Z,57.67
2022-09-21T15:52:49.011Z,58.33
2022-09-21T15:55:21.550Z,58.70
2022-09-21T15:57:51.137Z,57.90
2022-09-21T16:00:22.417Z,58.00
2022-09-21T16:03:04.546Z,59.40
2022-09-21T16:05:35.002Z,59.07
2022-09-21T16:08:10.139Z,58.03
2022-09-21T16:10:42.091Z,59.03
2022-09-21T16:13:36.504Z,59.10
2022-09-21T16:16:06.042Z,58.33
2022-09-21T16:18:43.064Z,58.60
2022-09-21T16:21:20.302Z,59.63
2022-09-21T16:23:48.656Z,61.53
2022-09-21T16:26:24.352Z,59.07
2022-09-21T16:28:59.406Z,60.53
2022-09-21T16:31:30.882Z,60.20
2022-09-21T16:34:07.989Z,59.40
2022-09-21T16:36:43.861Z,60.30
2022-09-21T16:39:17.349Z,61.20
2022-09-21T16:41:52.897Z,62.10
2022-09-21T16:44:23.079Z,62.27
2022-09-21T16:46:57.332Z,62.43
2022-09-21T16:49:30.155Z,64.87
2022-09-21T16:51:59.334Z,69.30
2022-09-21T16:54:27.390Z,70.17
2022-09-21T16:56:59.844Z,72.57
2022-09-21T16:59:28.095Z,71.50
2022-09-21T17:01:57.992Z,70.47
2022-09-21T17:04:28.254Z,63.23
2022-09-21T17:06:56.844Z,61.37
2022-09-21T17:09:29.417Z,61.70
2022-09-21T17:12:01.510Z,62.00
2022-09-21T17:14:35.027Z,61.30
2022-09-21T17:17:08.319Z,60.70
2022-09-21T17:19:36.856Z,59.93
2022-09-21T17:22:06.859Z,59.63
2022-09-21T17:24:49.817Z,60.10
2022-09-21T17:27:20.933Z,60.17
2022-09-21T17:29:49.582Z,61.33
2022-09-21T17:32:20.292Z,60.40
2022-09-21T17:34:50.123Z,60.60
2022-09-21T17:37:17.716Z,60.40
2022-09-21T17:39:45.718Z,59.90
2022-09-21T17:42:19.000Z,62.13
2022-09-21T17:45:01.736Z,61.10
2022-09-21T17:47:32.537Z,61.27
2022-09-21T17:50:03.658Z,61.83
2022-09-21T17:52:49.275Z,63.73
2022-09-21T17:55:17.874Z,63.73
2022-09-21T17:57:59.078Z,61.43
2022-09-21T18:00:38.813Z,62.57
2022-09-21T18:03:21.721Z,63.47
2022-09-21T18:05:50.729Z,66.60
2022-09-21T18:08:18.960Z,69.00
2022-09-21T18:10:57.225Z,65.40
2022-09-21T18:13:38.159Z,65.03
2022-09-21T18:16:27.147Z,66.53
2022-09-21T18:19:03.590Z,68.17
2022-09-21T18:21:34.343Z,70.10
2022-09-21T18:24:14.751Z,67.30
2022-09-21T18:26:43.034Z,65.13
2022-09-21T18:29:38.927Z,68.73
2022-09-21T18:32:25.217Z,61.07
2022-09-21T18:35:16.327Z,63.03
2022-09-21T18:37:57.838Z,66.13
2022-09-21T18:40:34.065Z,66.07
2022-09-21T18:43:11.853Z,62.40
2022-09-21T18:45:43.825Z,66.27
2022-09-21T18:48:22.661Z,67.43
2022-09-21T18:50:58.367Z,65.00
2022-09-21T18:53:33.912Z,66.97
2022-09-21T18:56:02.304Z,60.73
2022-09-21T18:58:30.941Z,65.27
2022-09-21T19:01:00.291Z,66.27
2022-09-21T19:03:30.006Z,65.10
2022-09-21T19:06:16.406Z,65.10
2022-09-21T19:08:54.582Z,67.17
2022-09-21T19:11:32.119Z,67.97
2022-09-21T19:14:08.317Z,64.87
2022-09-21T19:16:45.617Z,65.37
2022-09-21T19:19:28.366Z,65.73
2022-09-21T19:22:02.371Z,67.83
2022-09-21T19:24:36.701Z,63.93
2022-09-21T19:27:18.751Z,63.27
2022-09-21T19:29:57.080Z,64.43
2022-09-21T19:32:34.841Z,67.43
2022-09-21T19:35:17.227Z,66.70
2022-09-21T19:37:45.834Z,66.43
2022-09-21T19:40:14.266Z,67.40
2022-09-21T19:42:53.742Z,65.50
2022-09-21T19:45:27.959Z,66.90
2022-09-21T19:48:03.438Z,65.27
2022-09-21T19:50:40.936Z,70.37
2022-09-21T19:53:28.499Z,67.27
2022-09-21T19:56:16.336Z,67.13
2022-09-21T19:59:02.020Z,65.10
2022-09-21T20:01:33.067Z,64.47
2022-09-21T20:04:01.986Z,61.90
2022-09-21T20:06:37.969Z,63.57
2022-09-21T20:09:12.871Z,64.57
2022-09-21T20:11:47.660Z,62.90
2022-09-21T20:14:22.680Z,63.50
2022-09-21T20:16:53.213Z,63.60
2022-09-21T20:19:38.936Z,65.00
2022-09-21T20:22:13.890Z,65.43
2022-09-21T20:24:50.627Z,67.30
2022-09-21T20:27:28.345Z,67.17
2022-09-21T20:29:55.918Z,67.67
2022-09-21T20:32:23.940Z,66.93
2022-09-21T20:34:51.502Z,67.87
2022-09-21T20:37:21.066Z,68.37
2022-09-21T20:39:48.631Z,69.23
2022-09-21T20:42:20.998Z,68.20
2022-09-21T20:44:48.553Z,70.27
2022-09-21T20:47:16.104Z,70.03
2022-09-21T20:49:43.673Z,67.10
2022-09-21T20:52:11.232Z,68.27
2022-09-21T20:54:40.222Z,69.30
2022-09-21T20:57:08.482Z,66.83
2022-09-21T20:59:36.021Z,67.87
2022-09-21T21:02:03.604Z,67.50
2022-09-21T21:04:32.405Z,66.07
2022-09-21T21:06:59.971Z,64.50
2022-09-21T21:09:28.486Z,65.67
2022-09-21T21:11:57.603Z,64.13
2022-09-21T21:14:25.920Z,64.57
2022-09-21T21:16:53.614Z,65.47
2022-09-21T21:19:21.178Z,65.80
2022-09-21T21:21:48.679Z,66.60
2022-09-21T21:24:33.749Z,64.40
2022-09-21T21:27:03.697Z,66.40
2022-09-21T21:29:31.973Z,66.50
2022-09-21T21:32:00.551Z,65.53
2022-09-21T21:34:28.916Z,64.27
2022-09-21T21:36:56.479Z,63.50
2022-09-21T21:39:24.032Z,64.17
2022-09-21T21:41:51.602Z,64.87
2022-09-21T21:44:20.542Z,64.40
2022-09-21T21:46:48.098Z,65.30
2022-09-21T21:49:15.637Z,64.83
2022-09-21T21:51:44.549Z,63.40
2022-09-21T21:54:12.470Z,65.40
2022-09-21T21:56:40.026Z,65.17
2022-09-21T21:59:07.637Z,68.73
2022-09-21T22:01:39.164Z,67.03
2022-09-21T22:04:08.333Z,66.90
2022-09-21T22:06:37.789Z,65.10
2022-09-21T22:09:07.318Z,66.17
2022-09-21T22:11:35.575Z,65.33
2022-09-21T22:14:04.950Z,67.03
2022-09-21T22:16:34.753Z,76.00
2022-09-21T22:19:05.451Z,79.17
2022-09-21T22:21:34.974Z,77.73
2022-09-21T22:24:04.961Z,79.57
2022-09-21T22:26:36.018Z,79.80
2022-09-21T22:29:05.918Z,77.33
2022-09-21T22:31:36.283Z,73.33
2022-09-21T22:34:05.418Z,71.03
2022-09-21T22:36:34.683Z,67.27
2022-09-21T22:39:02.602Z,70.40
2022-09-21T22:41:32.600Z,68.00
2022-09-21T22:44:00.399Z,71.57
2022-09-21T22:46:29.279Z,72.93
2022-09-21T22:48:56.865Z,77.37
2022-09-21T22:51:25.741Z,91.67
2022-09-21T22:53:53.465Z,91.03
2022-09-21T22:56:22.358Z,88.77
2022-09-21T22:58:51.574Z,86.23
2022-09-21T23:01:21.453Z,85.33
2022-09-21T23:03:51.790Z,80.37
2022-09-21T23:06:21.237Z,79.77
2022-09-21T23:08:51.294Z,74.07
2022-09-21T23:11:21.784Z,71.37
2022-09-21T23:13:49.897Z,71.07
2022-09-21T23:16:18.004Z,72.00
2022-09-21T23:18:46.122Z,66.10
2022-09-21T23:21:15.416Z,70.03
2022-09-21T23:23:44.042Z,65.43
2022-09-21T23:26:14.391Z,67.23
2022-09-21T23:28:44.778Z,69.90
2022-09-21T23:31:14.646Z,66.10
2022-09-21T23:33:44.198Z,68.37
2022-09-21T23:36:13.899Z,67.37
2022-09-21T23:38:41.591Z,68.43
2022-09-21T23:41:10.752Z,68.67
2022-09-21T23:43:41.099Z,66.97
2022-09-21T23:46:10.354Z,65.87
2022-09-21T23:48:38.346Z,67.10
2022-09-21T23:51:06.701Z,67.10
2022-09-21T23:53:34.835Z,66.87
2022-09-21T23:56:02.935Z,68.10
2022-09-21T23:58:30.477Z,64.73
